sensor_id;sensor_type;location;lat;lon;timestamp;P1;durP1;ratioP1;P2;durP2;ratioP2
6215;SDS011;3141;49.234;9.326;2023-12-07T00:00:33;46.63;;;25.90;;
6215;SDS011;3141;49.234;9.326;2023-12-07T00:01:15;46.43;;;25.03;;
6215;SDS011;3141;49.234;9.326;2023-12-07T00:01:58;44.13;;;26.20;;
6215;SDS011;3141;49.234;9.326;2023-12-07T00:02:40;48.03;;;27.00;;
6215;SDS011;3141;49.234;9.326;2023-12-07T00:03:22;52.73;;;27.57;;
6215;SDS011;3141;49.234;9.326;2023-12-07T00:04:05;47.03;;;25.40;;
6215;SDS011;3141;49.234;9.326;2023-12-07T00:04:47;47.93;;;26.77;;
6215;SDS011;3141;49.234;9.326;2023-12-07T00:05:29;41.80;;;23.67;;
6215;SDS011;3141;49.234;9.326;2023-12-07T00:06:11;38.83;;;22.53;;
6215;SDS011;3141;49.234;9.326;2023-12-07T00:06:54;39.83;;;23.10;;
6215;SDS011;3141;49.234;9.326;2023-12-07T00:07:36;34.17;;;21.20;;
6215;SDS011;3141;49.234;9.326;2023-12-07T00:08:18;31.87;;;20.03;;
6215;SDS011;3141;49.234;9.326;2023-12-07T00:09:01;36.70;;;20.87;;
6215;SDS011;3141;49.234;9.326;2023-12-07T00:09:43;33.00;;;19.10;;
6215;SDS011;3141;49.234;9.326;2023-12-07T00:10:25;32.97;;;19.93;;
6215;SDS011;3141;49.234;9.326;2023-12-07T00:11:08;32.70;;;20.13;;
6215;SDS011;3141;49.234;9.326;2023-12-07T00:11:50;28.57;;;18.73;;
6215;SDS011;3141;49.234;9.326;2023-12-07T00:12:32;28.13;;;18.47;;
6215;SDS011;3141;49.234;9.326;2023-12-07T00:13:15;33.33;;;20.20;;
6215;SDS011;3141;49.234;9.326;2023-12-07T00:13:57;34.10;;;20.43;;
6215;SDS011;3141;49.234;9.326;2023-12-07T00:14:39;38.73;;;19.63;;
6215;SDS011;3141;49.234;9.326;2023-12-07T00:15:21;32.80;;;19.67;;
6215;SDS011;3141;49.234;9.326;2023-12-07T00:16:04;35.10;;;21.50;;
6215;SDS011;3141;49.234;9.326;2023-12-07T00:16:46;32.27;;;20.17;;
6215;SDS011;3141;49.234;9.326;2023-12-07T00:17:29;35.03;;;20.10;;
6215;SDS011;3141;49.234;9.326;2023-12-07T00:18:11;28.50;;;18.63;;
6215;SDS011;3141;49.234;9.326;2023-12-07T00:18:53;30.10;;;18.50;;
6215;SDS011;3141;49.234;9.326;2023-12-07T00:19:36;29.30;;;19.70;;
6215;SDS011;3141;49.234;9.326;2023-12-07T00:20:18;29.87;;;19.87;;
6215;SDS011;3141;49.234;9.326;2023-12-07T00:21:00;30.63;;;19.40;;
6215;SDS011;3141;49.234;9.326;2023-12-07T00:21:43;29.73;;;19.23;;
6215;SDS011;3141;49.234;9.326;2023-12-07T00:22:25;29.67;;;18.73;;
6215;SDS011;3141;49.234;9.326;2023-12-07T00:23:08;28.13;;;18.30;;
6215;SDS011;3141;49.234;9.326;2023-12-07T00:23:50;28.30;;;18.27;;
6215;SDS011;3141;49.234;9.326;2023-12-07T00:24:33;34.00;;;19.23;;
6215;SDS011;3141;49.234;9.326;2023-12-07T00:25:15;29.57;;;19.37;;
6215;SDS011;3141;49.234;9.326;2023-12-07T00:25:57;30.83;;;18.60;;
6215;SDS011;3141;49.234;9.326;2023-12-07T00:26:40;28.77;;;18.53;;
6215;SDS011;3141;49.234;9.326;2023-12-07T00:27:22;33.67;;;20.70;;
6215;SDS011;3141;49.234;9.326;2023-12-07T00:28:04;32.77;;;19.03;;
6215;SDS011;3141;49.234;9.326;2023-12-07T00:28:47;30.50;;;19.13;;
6215;SDS011;3141;49.234;9.326;2023-12-07T00:29:29;30.00;;;20.57;;
6215;SDS011;3141;49.234;9.326;2023-12-07T00:30:12;32.13;;;19.37;;
6215;SDS011;3141;49.234;9.326;2023-12-07T00:30:54;26.87;;;18.53;;
6215;SDS011;3141;49.234;9.326;2023-12-07T00:31:37;27.73;;;18.90;;
6215;SDS011;3141;49.234;9.326;2023-12-07T00:32:19;30.23;;;18.97;;
6215;SDS011;3141;49.234;9.326;2023-12-07T00:33:01;31.07;;;19.73;;
6215;SDS011;3141;49.234;9.326;2023-12-07T00:33:44;31.17;;;19.67;;
6215;SDS011;3141;49.234;9.326;2023-12-07T00:34:27;28.88;;;19.48;;
6215;SDS011;3141;49.234;9.326;2023-12-07T00:35:10;31.60;;;20.30;;
6215;SDS011;3141;49.234;9.326;2023-12-07T00:35:52;27.97;;;18.83;;
6215;SDS011;3141;49.234;9.326;2023-12-07T00:36:35;32.50;;;19.20;;
6215;SDS011;3141;49.234;9.326;2023-12-07T00:37:17;27.43;;;18.47;;
6215;SDS011;3141;49.234;9.326;2023-12-07T00:37:59;29.87;;;18.17;;
6215;SDS011;3141;49.234;9.326;2023-12-07T00:38:42;29.93;;;19.47;;
6215;SDS011;3141;49.234;9.326;2023-12-07T00:39:24;30.20;;;19.33;;
6215;SDS011;3141;49.234;9.326;2023-12-07T00:40:06;29.00;;;18.93;;
6215;SDS011;3141;49.234;9.326;2023-12-07T00:40:52;31.42;;;20.17;;
6215;SDS011;3141;49.234;9.326;2023-12-07T00:41:34;32.97;;;19.50;;
6215;SDS011;3141;49.234;9.326;2023-12-07T00:42:16;28.27;;;19.33;;
6215;SDS011;3141;49.234;9.326;2023-12-07T00:42:59;31.70;;;20.13;;
6215;SDS011;3141;49.234;9.326;2023-12-07T00:43:41;36.27;;;20.40;;
6215;SDS011;3141;49.234;9.326;2023-12-07T00:44:23;31.97;;;20.57;;
6215;SDS011;3141;49.234;9.326;2023-12-07T00:45:06;31.10;;;18.93;;
6215;SDS011;3141;49.234;9.326;2023-12-07T00:45:49;28.77;;;18.43;;
6215;SDS011;3141;49.234;9.326;2023-12-07T00:46:31;32.80;;;20.10;;
6215;SDS011;3141;49.234;9.326;2023-12-07T00:47:13;33.53;;;20.43;;
6215;SDS011;3141;49.234;9.326;2023-12-07T00:47:56;32.80;;;19.70;;
6215;SDS011;3141;49.234;9.326;2023-12-07T00:48:38;34.60;;;20.87;;
6215;SDS011;3141;49.234;9.326;2023-12-07T00:49:21;31.65;;;19.05;;
6215;SDS011;3141;49.234;9.326;2023-12-07T00:50:04;28.40;;;18.80;;
6215;SDS011;3141;49.234;9.326;2023-12-07T00:50:46;34.07;;;20.20;;
6215;SDS011;3141;49.234;9.326;2023-12-07T00:51:29;29.90;;;19.03;;
6215;SDS011;3141;49.234;9.326;2023-12-07T00:52:11;32.03;;;19.80;;
6215;SDS011;3141;49.234;9.326;2023-12-07T00:52:54;27.93;;;18.57;;
6215;SDS011;3141;49.234;9.326;2023-12-07T00:53:37;31.37;;;19.83;;
6215;SDS011;3141;49.234;9.326;2023-12-07T00:54:19;26.73;;;18.43;;
6215;SDS011;3141;49.234;9.326;2023-12-07T00:55:01;32.07;;;19.30;;
6215;SDS011;3141;49.234;9.326;2023-12-07T00:55:44;30.33;;;19.30;;
6215;SDS011;3141;49.234;9.326;2023-12-07T00:56:26;29.17;;;18.83;;
6215;SDS011;3141;49.234;9.326;2023-12-07T00:57:08;32.47;;;19.67;;
6215;SDS011;3141;49.234;9.326;2023-12-07T00:57:51;34.90;;;17.83;;
6215;SDS011;3141;49.234;9.326;2023-12-07T00:58:33;28.90;;;19.07;;
6215;SDS011;3141;49.234;9.326;2023-12-07T00:59:15;30.43;;;18.23;;
6215;SDS011;3141;49.234;9.326;2023-12-07T00:59:57;30.33;;;18.33;;
6215;SDS011;3141;49.234;9.326;2023-12-07T01:00:40;27.83;;;18.30;;
6215;SDS011;3141;49.234;9.326;2023-12-07T01:01:22;28.63;;;18.10;;
6215;SDS011;3141;49.234;9.326;2023-12-07T01:02:05;26.87;;;18.57;;
6215;SDS011;3141;49.234;9.326;2023-12-07T01:02:48;29.90;;;18.38;;
6215;SDS011;3141;49.234;9.326;2023-12-07T01:03:31;26.50;;;18.13;;
6215;SDS011;3141;49.234;9.326;2023-12-07T01:04:13;29.83;;;18.87;;
6215;SDS011;3141;49.234;9.326;2023-12-07T01:04:55;32.57;;;18.37;;
6215;SDS011;3141;49.234;9.326;2023-12-07T01:05:38;27.93;;;18.57;;
6215;SDS011;3141;49.234;9.326;2023-12-07T01:06:20;31.40;;;18.23;;
6215;SDS011;3141;49.234;9.326;2023-12-07T01:07:02;29.57;;;18.73;;
6215;SDS011;3141;49.234;9.326;2023-12-07T01:07:45;31.40;;;18.27;;
6215;SDS011;3141;49.234;9.326;2023-12-07T01:08:27;30.80;;;18.60;;
6215;SDS011;3141;49.234;9.326;2023-12-07T01:09:09;29.23;;;18.63;;
6215;SDS011;3141;49.234;9.326;2023-12-07T01:09:55;29.20;;;19.25;;
6215;SDS011;3141;49.234;9.326;2023-12-07T01:10:37;26.73;;;17.83;;
6215;SDS011;3141;49.234;9.326;2023-12-07T01:11:19;27.40;;;18.50;;
6215;SDS011;3141;49.234;9.326;2023-12-07T01:12:02;32.50;;;17.53;;
6215;SDS011;3141;49.234;9.326;2023-12-07T01:12:45;31.20;;;18.83;;
6215;SDS011;3141;49.234;9.326;2023-12-07T01:13:27;31.27;;;19.53;;
6215;SDS011;3141;49.234;9.326;2023-12-07T01:14:09;28.23;;;17.80;;
6215;SDS011;3141;49.234;9.326;2023-12-07T01:14:53;29.75;;;17.58;;
6215;SDS011;3141;49.234;9.326;2023-12-07T01:15:35;28.77;;;19.13;;
6215;SDS011;3141;49.234;9.326;2023-12-07T01:16:17;33.40;;;19.37;;
6215;SDS011;3141;49.234;9.326;2023-12-07T01:17:00;26.90;;;18.70;;
6215;SDS011;3141;49.234;9.326;2023-12-07T01:17:42;27.30;;;17.60;;
6215;SDS011;3141;49.234;9.326;2023-12-07T01:18:24;31.03;;;17.67;;
6215;SDS011;3141;49.234;9.326;2023-12-07T01:19:07;29.33;;;18.23;;
6215;SDS011;3141;49.234;9.326;2023-12-07T01:19:49;27.90;;;17.80;;
6215;SDS011;3141;49.234;9.326;2023-12-07T01:20:31;27.03;;;18.43;;
6215;SDS011;3141;49.234;9.326;2023-12-07T01:21:14;33.57;;;18.60;;
6215;SDS011;3141;49.234;9.326;2023-12-07T01:21:56;30.77;;;18.70;;
6215;SDS011;3141;49.234;9.326;2023-12-07T01:22:39;31.73;;;18.37;;
6215;SDS011;3141;49.234;9.326;2023-12-07T01:23:23;28.80;;;17.73;;
6215;SDS011;3141;49.234;9.326;2023-12-07T01:24:05;28.47;;;18.33;;
6215;SDS011;3141;49.234;9.326;2023-12-07T01:24:48;29.70;;;19.07;;
6215;SDS011;3141;49.234;9.326;2023-12-07T01:25:30;29.27;;;18.10;;
6215;SDS011;3141;49.234;9.326;2023-12-07T01:26:12;29.70;;;18.03;;
6215;SDS011;3141;49.234;9.326;2023-12-07T01:26:55;28.27;;;17.70;;
6215;SDS011;3141;49.234;9.326;2023-12-07T01:27:37;27.87;;;18.67;;
6215;SDS011;3141;49.234;9.326;2023-12-07T01:28:19;26.43;;;17.43;;
6215;SDS011;3141;49.234;9.326;2023-12-07T01:29:02;30.77;;;18.53;;
6215;SDS011;3141;49.234;9.326;2023-12-07T01:29:44;28.17;;;18.30;;
6215;SDS011;3141;49.234;9.326;2023-12-07T01:30:27;23.97;;;16.23;;
6215;SDS011;3141;49.234;9.326;2023-12-07T01:31:09;30.07;;;18.90;;
6215;SDS011;3141;49.234;9.326;2023-12-07T01:31:51;28.57;;;17.73;;
6215;SDS011;3141;49.234;9.326;2023-12-07T01:32:33;25.57;;;16.87;;
6215;SDS011;3141;49.234;9.326;2023-12-07T01:33:16;29.23;;;16.37;;
6215;SDS011;3141;49.234;9.326;2023-12-07T01:33:58;24.33;;;16.70;;
6215;SDS011;3141;49.234;9.326;2023-12-07T01:34:41;29.37;;;17.57;;
6215;SDS011;3141;49.234;9.326;2023-12-07T01:35:23;25.67;;;17.30;;
6215;SDS011;3141;49.234;9.326;2023-12-07T01:36:05;23.50;;;16.37;;
6215;SDS011;3141;49.234;9.326;2023-12-07T01:36:48;29.83;;;17.00;;
6215;SDS011;3141;49.234;9.326;2023-12-07T01:37:30;27.10;;;17.00;;
6215;SDS011;3141;49.234;9.326;2023-12-07T01:38:12;27.57;;;17.10;;
6215;SDS011;3141;49.234;9.326;2023-12-07T01:38:55;25.40;;;16.47;;
6215;SDS011;3141;49.234;9.326;2023-12-07T01:39:37;32.10;;;17.43;;
6215;SDS011;3141;49.234;9.326;2023-12-07T01:40:19;26.63;;;16.23;;
6215;SDS011;3141;49.234;9.326;2023-12-07T01:41:02;30.73;;;17.57;;
6215;SDS011;3141;49.234;9.326;2023-12-07T01:41:44;28.53;;;18.00;;
6215;SDS011;3141;49.234;9.326;2023-12-07T01:42:26;24.50;;;16.47;;
6215;SDS011;3141;49.234;9.326;2023-12-07T01:43:09;25.80;;;16.53;;
6215;SDS011;3141;49.234;9.326;2023-12-07T01:43:51;23.07;;;15.87;;
6215;SDS011;3141;49.234;9.326;2023-12-07T01:44:33;27.87;;;18.23;;
6215;SDS011;3141;49.234;9.326;2023-12-07T01:45:16;26.27;;;16.77;;
6215;SDS011;3141;49.234;9.326;2023-12-07T01:45:58;26.90;;;17.27;;
6215;SDS011;3141;49.234;9.326;2023-12-07T01:46:41;24.98;;;17.17;;
6215;SDS011;3141;49.234;9.326;2023-12-07T01:47:24;26.60;;;17.43;;
6215;SDS011;3141;49.234;9.326;2023-12-07T01:48:06;29.83;;;17.77;;
6215;SDS011;3141;49.234;9.326;2023-12-07T01:48:49;33.40;;;17.97;;
6215;SDS011;3141;49.234;9.326;2023-12-07T01:49:31;28.50;;;18.30;;
6215;SDS011;3141;49.234;9.326;2023-12-07T01:50:14;27.70;;;17.20;;
6215;SDS011;3141;49.234;9.326;2023-12-07T01:50:57;27.55;;;17.58;;
6215;SDS011;3141;49.234;9.326;2023-12-07T01:51:40;22.60;;;15.63;;
6215;SDS011;3141;49.234;9.326;2023-12-07T01:52:22;24.73;;;16.47;;
6215;SDS011;3141;49.234;9.326;2023-12-07T01:53:08;36.88;;;17.67;;
6215;SDS011;3141;49.234;9.326;2023-12-07T01:53:51;26.77;;;17.03;;
6215;SDS011;3141;49.234;9.326;2023-12-07T01:54:34;26.57;;;18.20;;
6215;SDS011;3141;49.234;9.326;2023-12-07T01:55:17;25.40;;;17.47;;
6215;SDS011;3141;49.234;9.326;2023-12-07T01:55:59;26.03;;;18.03;;
6215;SDS011;3141;49.234;9.326;2023-12-07T01:56:42;27.37;;;16.77;;
6215;SDS011;3141;49.234;9.326;2023-12-07T01:57:24;30.30;;;17.60;;
6215;SDS011;3141;49.234;9.326;2023-12-07T01:58:07;26.87;;;17.13;;
6215;SDS011;3141;49.234;9.326;2023-12-07T01:58:49;28.60;;;18.13;;
6215;SDS011;3141;49.234;9.326;2023-12-07T01:59:32;28.10;;;18.00;;
6215;SDS011;3141;49.234;9.326;2023-12-07T02:00:15;28.10;;;17.55;;
6215;SDS011;3141;49.234;9.326;2023-12-07T02:00:58;31.40;;;18.47;;
6215;SDS011;3141;49.234;9.326;2023-12-07T02:01:40;28.40;;;17.87;;
6215;SDS011;3141;49.234;9.326;2023-12-07T02:02:23;29.90;;;18.10;;
6215;SDS011;3141;49.234;9.326;2023-12-07T02:03:05;29.40;;;18.33;;
6215;SDS011;3141;49.234;9.326;2023-12-07T02:03:48;29.37;;;17.50;;
6215;SDS011;3141;49.234;9.326;2023-12-07T02:04:30;29.63;;;18.10;;
6215;SDS011;3141;49.234;9.326;2023-12-07T02:05:13;31.03;;;17.93;;
6215;SDS011;3141;49.234;9.326;2023-12-07T02:05:56;27.27;;;17.42;;
6215;SDS011;3141;49.234;9.326;2023-12-07T02:06:40;29.98;;;17.95;;
6215;SDS011;3141;49.234;9.326;2023-12-07T02:07:22;25.30;;;17.10;;
6215;SDS011;3141;49.234;9.326;2023-12-07T02:08:05;26.05;;;16.92;;
6215;SDS011;3141;49.234;9.326;2023-12-07T02:08:47;28.03;;;17.90;;
6215;SDS011;3141;49.234;9.326;2023-12-07T02:09:36;25.57;;;17.23;;
6215;SDS011;3141;49.234;9.326;2023-12-07T02:10:20;23.42;;;16.63;;
6215;SDS011;3141;49.234;9.326;2023-12-07T02:11:02;26.27;;;17.40;;
6215;SDS011;3141;49.234;9.326;2023-12-07T02:11:45;30.75;;;17.58;;
6215;SDS011;3141;49.234;9.326;2023-12-07T02:12:27;30.23;;;16.43;;
6215;SDS011;3141;49.234;9.326;2023-12-07T02:13:11;26.80;;;16.98;;
6215;SDS011;3141;49.234;9.326;2023-12-07T02:13:54;27.77;;;17.40;;
6215;SDS011;3141;49.234;9.326;2023-12-07T02:14:39;27.65;;;17.30;;
6215;SDS011;3141;49.234;9.326;2023-12-07T02:15:21;23.50;;;15.67;;
6215;SDS011;3141;49.234;9.326;2023-12-07T02:16:23;27.03;;;16.37;;
6215;SDS011;3141;49.234;9.326;2023-12-07T02:17:19;28.55;;;16.40;;
6215;SDS011;3141;49.234;9.326;2023-12-07T02:18:24;27.42;;;16.25;;
6215;SDS011;3141;49.234;9.326;2023-12-07T02:21:33;27.35;;;16.52;;
6215;SDS011;3141;49.234;9.326;2023-12-07T02:22:25;24.92;;;16.60;;
6215;SDS011;3141;49.234;9.326;2023-12-07T02:23:12;26.65;;;16.65;;
6215;SDS011;3141;49.234;9.326;2023-12-07T02:23:56;25.70;;;16.92;;
6215;SDS011;3141;49.234;9.326;2023-12-07T02:24:42;26.58;;;17.08;;
6215;SDS011;3141;49.234;9.326;2023-12-07T02:25:52;25.40;;;16.13;;
6215;SDS011;3141;49.234;9.326;2023-12-07T02:26:36;27.92;;;17.05;;
6215;SDS011;3141;49.234;9.326;2023-12-07T02:27:32;27.90;;;16.50;;
6215;SDS011;3141;49.234;9.326;2023-12-07T02:28:16;28.20;;;16.17;;
6215;SDS011;3141;49.234;9.326;2023-12-07T02:28:59;26.63;;;16.43;;
6215;SDS011;3141;49.234;9.326;2023-12-07T02:29:41;28.03;;;17.20;;
6215;SDS011;3141;49.234;9.326;2023-12-07T02:30:23;26.60;;;16.80;;
6215;SDS011;3141;49.234;9.326;2023-12-07T02:31:06;28.77;;;17.20;;
6215;SDS011;3141;49.234;9.326;2023-12-07T02:31:48;26.30;;;17.70;;
6215;SDS011;3141;49.234;9.326;2023-12-07T02:32:30;31.50;;;18.77;;
6215;SDS011;3141;49.234;9.326;2023-12-07T02:33:13;28.13;;;17.33;;
6215;SDS011;3141;49.234;9.326;2023-12-07T02:33:55;27.77;;;17.97;;
6215;SDS011;3141;49.234;9.326;2023-12-07T02:34:38;28.30;;;18.50;;
6215;SDS011;3141;49.234;9.326;2023-12-07T02:35:20;26.50;;;16.87;;
6215;SDS011;3141;49.234;9.326;2023-12-07T02:36:03;32.30;;;17.50;;
6215;SDS011;3141;49.234;9.326;2023-12-07T02:36:45;30.77;;;16.97;;
6215;SDS011;3141;49.234;9.326;2023-12-07T02:37:32;28.13;;;17.83;;
6215;SDS011;3141;49.234;9.326;2023-12-07T02:38:19;29.88;;;16.90;;
6215;SDS011;3141;49.234;9.326;2023-12-07T02:39:05;27.88;;;17.77;;
6215;SDS011;3141;49.234;9.326;2023-12-07T02:39:50;27.73;;;17.85;;
6215;SDS011;3141;49.234;9.326;2023-12-07T02:40:33;29.48;;;18.27;;
6215;SDS011;3141;49.234;9.326;2023-12-07T02:41:17;28.92;;;17.23;;
6215;SDS011;3141;49.234;9.326;2023-12-07T02:42:00;28.27;;;18.00;;
6215;SDS011;3141;49.234;9.326;2023-12-07T02:42:43;26.83;;;16.80;;
6215;SDS011;3141;49.234;9.326;2023-12-07T02:43:26;28.42;;;17.60;;
6215;SDS011;3141;49.234;9.326;2023-12-07T02:44:09;28.63;;;17.57;;
6215;SDS011;3141;49.234;9.326;2023-12-07T02:44:52;25.57;;;17.37;;
6215;SDS011;3141;49.234;9.326;2023-12-07T02:45:35;25.83;;;17.33;;
6215;SDS011;3141;49.234;9.326;2023-12-07T02:46:17;30.10;;;17.43;;
6215;SDS011;3141;49.234;9.326;2023-12-07T02:47:00;30.90;;;18.70;;
6215;SDS011;3141;49.234;9.326;2023-12-07T02:47:42;28.73;;;18.47;;
6215;SDS011;3141;49.234;9.326;2023-12-07T02:48:28;26.63;;;17.10;;
6215;SDS011;3141;49.234;9.326;2023-12-07T02:49:11;30.00;;;17.65;;
6215;SDS011;3141;49.234;9.326;2023-12-07T02:49:53;27.80;;;17.80;;
6215;SDS011;3141;49.234;9.326;2023-12-07T02:50:36;32.20;;;18.37;;
6215;SDS011;3141;49.234;9.326;2023-12-07T02:51:18;31.40;;;18.93;;
6215;SDS011;3141;49.234;9.326;2023-12-07T02:52:01;29.90;;;17.70;;
6215;SDS011;3141;49.234;9.326;2023-12-07T02:52:43;31.47;;;17.47;;
6215;SDS011;3141;49.234;9.326;2023-12-07T02:53:25;29.33;;;17.50;;
6215;SDS011;3141;49.234;9.326;2023-12-07T02:54:08;30.93;;;18.33;;
6215;SDS011;3141;49.234;9.326;2023-12-07T02:54:50;35.10;;;18.83;;
6215;SDS011;3141;49.234;9.326;2023-12-07T02:55:32;32.53;;;18.40;;
6215;SDS011;3141;49.234;9.326;2023-12-07T02:56:14;30.80;;;18.23;;
6215;SDS011;3141;49.234;9.326;2023-12-07T02:56:57;31.83;;;18.00;;
6215;SDS011;3141;49.234;9.326;2023-12-07T02:57:39;32.50;;;18.27;;
6215;SDS011;3141;49.234;9.326;2023-12-07T02:58:21;28.60;;;19.47;;
6215;SDS011;3141;49.234;9.326;2023-12-07T02:59:04;27.93;;;17.67;;
6215;SDS011;3141;49.234;9.326;2023-12-07T02:59:46;39.10;;;19.47;;
6215;SDS011;3141;49.234;9.326;2023-12-07T03:00:28;28.77;;;17.60;;
6215;SDS011;3141;49.234;9.326;2023-12-07T03:01:11;29.93;;;17.53;;
6215;SDS011;3141;49.234;9.326;2023-12-07T03:01:53;29.70;;;17.73;;
6215;SDS011;3141;49.234;9.326;2023-12-07T03:02:36;29.13;;;17.77;;
6215;SDS011;3141;49.234;9.326;2023-12-07T03:03:19;34.25;;;20.00;;
6215;SDS011;3141;49.234;9.326;2023-12-07T03:04:01;31.67;;;17.30;;
6215;SDS011;3141;49.234;9.326;2023-12-07T03:04:44;30.03;;;18.57;;
6215;SDS011;3141;49.234;9.326;2023-12-07T03:05:26;28.57;;;17.50;;
6215;SDS011;3141;49.234;9.326;2023-12-07T03:06:08;29.30;;;18.07;;
6215;SDS011;3141;49.234;9.326;2023-12-07T03:06:50;35.27;;;17.37;;
6215;SDS011;3141;49.234;9.326;2023-12-07T03:07:33;28.73;;;17.03;;
6215;SDS011;3141;49.234;9.326;2023-12-07T03:08:16;33.08;;;18.10;;
6215;SDS011;3141;49.234;9.326;2023-12-07T03:08:59;27.50;;;17.50;;
6215;SDS011;3141;49.234;9.326;2023-12-07T03:09:41;30.17;;;17.60;;
6215;SDS011;3141;49.234;9.326;2023-12-07T03:10:23;30.03;;;17.83;;
6215;SDS011;3141;49.234;9.326;2023-12-07T03:11:06;28.27;;;16.80;;
6215;SDS011;3141;49.234;9.326;2023-12-07T03:11:48;29.20;;;17.30;;
6215;SDS011;3141;49.234;9.326;2023-12-07T03:12:31;30.00;;;18.07;;
6215;SDS011;3141;49.234;9.326;2023-12-07T03:13:13;30.57;;;17.87;;
6215;SDS011;3141;49.234;9.326;2023-12-07T03:13:55;28.23;;;17.60;;
6215;SDS011;3141;49.234;9.326;2023-12-07T03:14:38;33.90;;;18.23;;
6215;SDS011;3141;49.234;9.326;2023-12-07T03:15:20;35.53;;;19.17;;
6215;SDS011;3141;49.234;9.326;2023-12-07T03:16:06;32.47;;;18.20;;
6215;SDS011;3141;49.234;9.326;2023-12-07T03:16:49;33.88;;;18.80;;
6215;SDS011;3141;49.234;9.326;2023-12-07T03:17:31;32.40;;;17.60;;
6215;SDS011;3141;49.234;9.326;2023-12-07T03:18:14;32.43;;;18.20;;
6215;SDS011;3141;49.234;9.326;2023-12-07T03:18:56;28.83;;;17.90;;
6215;SDS011;3141;49.234;9.326;2023-12-07T03:19:39;34.70;;;18.20;;
6215;SDS011;3141;49.234;9.326;2023-12-07T03:20:22;35.47;;;19.08;;
6215;SDS011;3141;49.234;9.326;2023-12-07T03:21:04;34.70;;;19.03;;
6215;SDS011;3141;49.234;9.326;2023-12-07T03:21:46;35.27;;;18.83;;
6215;SDS011;3141;49.234;9.326;2023-12-07T03:22:29;33.33;;;19.93;;
6215;SDS011;3141;49.234;9.326;2023-12-07T03:23:11;34.30;;;18.07;;
6215;SDS011;3141;49.234;9.326;2023-12-07T03:23:54;29.80;;;18.43;;
6215;SDS011;3141;49.234;9.326;2023-12-07T03:24:36;34.77;;;19.20;;
6215;SDS011;3141;49.234;9.326;2023-12-07T03:25:19;34.47;;;17.83;;
6215;SDS011;3141;49.234;9.326;2023-12-07T03:26:01;29.93;;;16.97;;
6215;SDS011;3141;49.234;9.326;2023-12-07T03:26:43;35.10;;;18.13;;
6215;SDS011;3141;49.234;9.326;2023-12-07T03:27:26;33.90;;;19.27;;
6215;SDS011;3141;49.234;9.326;2023-12-07T03:28:10;28.77;;;17.95;;
6215;SDS011;3141;49.234;9.326;2023-12-07T03:28:52;26.57;;;17.83;;
6215;SDS011;3141;49.234;9.326;2023-12-07T03:29:34;27.23;;;17.30;;
6215;SDS011;3141;49.234;9.326;2023-12-07T03:30:17;29.23;;;18.77;;
6215;SDS011;3141;49.234;9.326;2023-12-07T03:30:59;34.50;;;18.93;;
6215;SDS011;3141;49.234;9.326;2023-12-07T03:31:41;30.40;;;18.67;;
6215;SDS011;3141;49.234;9.326;2023-12-07T03:32:24;29.43;;;18.33;;
6215;SDS011;3141;49.234;9.326;2023-12-07T03:33:06;32.50;;;17.87;;
6215;SDS011;3141;49.234;9.326;2023-12-07T03:33:48;29.40;;;17.53;;
6215;SDS011;3141;49.234;9.326;2023-12-07T03:34:31;33.13;;;19.13;;
6215;SDS011;3141;49.234;9.326;2023-12-07T03:35:13;29.20;;;18.93;;
6215;SDS011;3141;49.234;9.326;2023-12-07T03:35:55;34.50;;;18.40;;
6215;SDS011;3141;49.234;9.326;2023-12-07T03:36:38;31.10;;;18.17;;
6215;SDS011;3141;49.234;9.326;2023-12-07T03:37:21;29.30;;;18.90;;
6215;SDS011;3141;49.234;9.326;2023-12-07T03:38:03;30.47;;;18.17;;
6215;SDS011;3141;49.234;9.326;2023-12-07T03:38:45;31.60;;;19.03;;
6215;SDS011;3141;49.234;9.326;2023-12-07T03:39:28;29.70;;;18.97;;
6215;SDS011;3141;49.234;9.326;2023-12-07T03:40:11;35.35;;;19.00;;
6215;SDS011;3141;49.234;9.326;2023-12-07T03:40:54;32.60;;;18.70;;
6215;SDS011;3141;49.234;9.326;2023-12-07T03:41:37;34.60;;;18.30;;
6215;SDS011;3141;49.234;9.326;2023-12-07T03:42:19;35.87;;;19.50;;
6215;SDS011;3141;49.234;9.326;2023-12-07T03:43:01;35.73;;;19.00;;
6215;SDS011;3141;49.234;9.326;2023-12-07T03:43:46;27.75;;;17.05;;
6215;SDS011;3141;49.234;9.326;2023-12-07T03:44:28;27.03;;;17.43;;
6215;SDS011;3141;49.234;9.326;2023-12-07T03:45:11;31.80;;;17.87;;
6215;SDS011;3141;49.234;9.326;2023-12-07T03:45:53;30.03;;;19.30;;
6215;SDS011;3141;49.234;9.326;2023-12-07T03:46:35;36.30;;;19.17;;
6215;SDS011;3141;49.234;9.326;2023-12-07T03:47:18;35.33;;;19.90;;
6215;SDS011;3141;49.234;9.326;2023-12-07T03:48:00;29.93;;;17.90;;
6215;SDS011;3141;49.234;9.326;2023-12-07T03:48:42;34.30;;;19.30;;
6215;SDS011;3141;49.234;9.326;2023-12-07T03:49:25;31.13;;;18.67;;
6215;SDS011;3141;49.234;9.326;2023-12-07T03:50:07;33.97;;;19.60;;
6215;SDS011;3141;49.234;9.326;2023-12-07T03:50:49;30.90;;;17.73;;
6215;SDS011;3141;49.234;9.326;2023-12-07T03:51:32;29.63;;;17.40;;
6215;SDS011;3141;49.234;9.326;2023-12-07T03:52:14;32.50;;;18.03;;
6215;SDS011;3141;49.234;9.326;2023-12-07T03:52:56;32.17;;;16.70;;
6215;SDS011;3141;49.234;9.326;2023-12-07T03:53:39;30.70;;;18.77;;
6215;SDS011;3141;49.234;9.326;2023-12-07T03:54:21;31.10;;;17.90;;
6215;SDS011;3141;49.234;9.326;2023-12-07T03:55:03;29.60;;;17.67;;
6215;SDS011;3141;49.234;9.326;2023-12-07T03:55:47;33.05;;;17.52;;
6215;SDS011;3141;49.234;9.326;2023-12-07T03:56:30;36.73;;;17.70;;
6215;SDS011;3141;49.234;9.326;2023-12-07T03:57:13;28.00;;;17.23;;
6215;SDS011;3141;49.234;9.326;2023-12-07T03:57:55;33.23;;;17.90;;
6215;SDS011;3141;49.234;9.326;2023-12-07T03:58:37;32.83;;;18.93;;
6215;SDS011;3141;49.234;9.326;2023-12-07T03:59:20;29.17;;;17.53;;
6215;SDS011;3141;49.234;9.326;2023-12-07T04:00:02;28.40;;;16.93;;
6215;SDS011;3141;49.234;9.326;2023-12-07T04:00:46;29.15;;;17.48;;
6215;SDS011;3141;49.234;9.326;2023-12-07T04:01:29;37.07;;;19.00;;
6215;SDS011;3141;49.234;9.326;2023-12-07T04:02:11;34.23;;;17.37;;
6215;SDS011;3141;49.234;9.326;2023-12-07T04:02:53;34.73;;;18.33;;
6215;SDS011;3141;49.234;9.326;2023-12-07T04:03:36;32.27;;;18.40;;
6215;SDS011;3141;49.234;9.326;2023-12-07T04:04:18;34.07;;;19.00;;
6215;SDS011;3141;49.234;9.326;2023-12-07T04:05:00;28.90;;;16.90;;
6215;SDS011;3141;49.234;9.326;2023-12-07T04:05:44;29.05;;;17.77;;
6215;SDS011;3141;49.234;9.326;2023-12-07T04:06:26;33.53;;;18.57;;
6215;SDS011;3141;49.234;9.326;2023-12-07T04:07:08;32.77;;;18.17;;
6215;SDS011;3141;49.234;9.326;2023-12-07T04:07:51;26.40;;;16.87;;
6215;SDS011;3141;49.234;9.326;2023-12-07T04:08:33;31.63;;;17.20;;
6215;SDS011;3141;49.234;9.326;2023-12-07T04:09:15;32.93;;;18.30;;
6215;SDS011;3141;49.234;9.326;2023-12-07T04:09:58;29.30;;;16.37;;
6215;SDS011;3141;49.234;9.326;2023-12-07T04:10:40;39.30;;;18.73;;
6215;SDS011;3141;49.234;9.326;2023-12-07T04:11:22;34.23;;;19.57;;
6215;SDS011;3141;49.234;9.326;2023-12-07T04:12:05;32.90;;;18.40;;
6215;SDS011;3141;49.234;9.326;2023-12-07T04:12:47;32.53;;;18.77;;
6215;SDS011;3141;49.234;9.326;2023-12-07T04:13:30;34.47;;;19.47;;
6215;SDS011;3141;49.234;9.326;2023-12-07T04:14:12;35.67;;;18.47;;
6215;SDS011;3141;49.234;9.326;2023-12-07T04:14:54;35.33;;;19.80;;
6215;SDS011;3141;49.234;9.326;2023-12-07T04:15:37;36.07;;;18.63;;
6215;SDS011;3141;49.234;9.326;2023-12-07T04:16:19;33.63;;;19.33;;
6215;SDS011;3141;49.234;9.326;2023-12-07T04:17:01;35.47;;;18.67;;
6215;SDS011;3141;49.234;9.326;2023-12-07T04:17:43;39.07;;;18.97;;
6215;SDS011;3141;49.234;9.326;2023-12-07T04:18:26;32.43;;;19.40;;
6215;SDS011;3141;49.234;9.326;2023-12-07T04:19:08;36.50;;;20.53;;
6215;SDS011;3141;49.234;9.326;2023-12-07T04:19:50;36.40;;;19.93;;
6215;SDS011;3141;49.234;9.326;2023-12-07T04:20:33;38.13;;;19.60;;
6215;SDS011;3141;49.234;9.326;2023-12-07T04:21:15;40.00;;;19.90;;